Anton, TX (79313)

1:32 AM CST on February 10, 2016 (GMT -0600)
WT_Meso | | Change Station
CLOSE
Current Station
Personal Weather Station
Location: Anton, TX
Elevation: 3404 ft
Nearby Weather Stations

Elev 3404 ft 33.73 °N, 102.19 °W | Updated 27 minutes ago

Partly Cloudy
Partly Cloudy
33 °F
Feels Like 26 °F
N
8
Wind Variable Wind from West
Gusts 0.0 mph

Today
High -- | Low -- °F
--% Chance of Precip.
Yesterday
High -- | Low -- °F
Precip. -- in
Pressure 30.28 in
Visibility 10.0 miles
Clouds Clear
Windchill 26 °F
Dew Point 16 °F
Humidity 48%
Rainfall in
Snow Depth Not available.
7:38 AM 6:27 PM
Waxing Crescent, 4% visible
METAR KLBB 100653Z 27006KT 10SM CLR 03/M07 A3032 RMK AO2 SLP253 T00281072
Pressure 30.28 in
Visibility 10.0 miles
Clouds Clear
Windchill 26 °F
Dew Point 16 °F
Humidity 48%
Rainfall in
Snow Depth Not available.
7:38 AM 6:27 PM
Waxing Crescent, 4% visible
METAR KLBB 100653Z 27006KT 10SM CLR 03/M07 A3032 RMK AO2 SLP253 T00281072

10-Day Weather Forecast

Almanac

Astronomy

Feb. 10, 2016 Rise Set
Actual Time
Civil Twilight
Nautical Twilight
Astronomical Twilight
Moon
Length of Visible Light
Length of Day
Tomorrow will be .
, % of the Moon is Illuminated

Today's Extremes

State Highs State Lows

Community

WunderPhotos

Upload Photos

1,891,826 photos uploaded!

WunderBlog® & News

Nearby

Air Quality

  Air Quality AQ Index Pollutant
Not available.

Snow Depth

Station Depth Elevation

Earthquake Activity

City Distance Mag. Time & Date
Minimum magnitude displayed is 2.5.

Coastal Water Temperatures

Place Temperature

Stations

Nearby Weather Stations

Station Location Temp. Windchill Dew Point Humidity Wind Precip. Elev Updated Type
                   

Watches & Warnings

There are currently no watches in effect.